createdAt,value
2023-02-07T00:01:44.463Z,102387.69
2023-02-07T00:04:13.305Z,102390.81
2023-02-07T00:06:41.876Z,102395.94
2023-02-07T00:09:12.789Z,102393.38
2023-02-07T00:11:43.362Z,102391.75
2023-02-07T00:14:13.777Z,102376.03
2023-02-07T00:16:44.028Z,102385.03
2023-02-07T00:19:12.633Z,102385.81
2023-02-07T00:21:41.156Z,102380.69
2023-02-07T00:24:09.797Z,102361.66
2023-02-07T00:26:38.181Z,102365.31
2023-02-07T00:29:07.650Z,102372.22
2023-02-07T00:31:37.473Z,102358.34
2023-02-07T00:34:09.114Z,102363.47
2023-02-07T00:36:38.600Z,102369.50
2023-02-07T00:39:10.221Z,102368.00
2023-02-07T00:41:39.167Z,102358.66
2023-02-07T00:44:08.528Z,102363.03
2023-02-07T00:46:37.705Z,102356.81
2023-02-07T00:49:08.308Z,102361.03
2023-02-07T00:51:36.894Z,102355.03
2023-02-07T00:54:06.385Z,102353.53
2023-02-07T00:56:35.556Z,102351.56
2023-02-07T00:59:04.385Z,102350.31
2023-02-07T01:01:33.209Z,102366.59
2023-02-07T01:04:01.956Z,102368.25
2023-02-07T01:06:33.863Z,102367.53
2023-02-07T01:09:05.688Z,102363.13
2023-02-07T01:11:35.410Z,102369.78
2023-02-07T01:14:04.585Z,102373.09
2023-02-07T01:16:36.069Z,102360.09
2023-02-07T01:19:07.123Z,102366.88
2023-02-07T01:21:37.226Z,102364.13
2023-02-07T01:24:07.754Z,102347.69
2023-02-07T01:26:37.277Z,102359.44
2023-02-07T01:29:06.480Z,102358.53
2023-02-07T01:31:35.350Z,102351.56
2023-02-07T01:34:05.614Z,102360.91
2023-02-07T01:36:34.335Z,102361.81
2023-02-07T01:39:05.190Z,102354.75
2023-02-07T01:41:36.455Z,102350.03
2023-02-07T01:44:07.681Z,102351.69
2023-02-07T01:46:37.156Z,102347.13
2023-02-07T01:49:11.161Z,102357.41
2023-02-07T01:51:45.686Z,102353.56
2023-02-07T01:54:16.265Z,102349.75
2023-02-07T01:56:51.800Z,102355.31
2023-02-07T01:59:20.658Z,102371.84
2023-02-07T02:01:49.175Z,102373.94
2023-02-07T02:04:19.189Z,102369.63
2023-02-07T02:06:47.867Z,102370.78
2023-02-07T02:09:18.194Z,102372.69
2023-02-07T02:12:19.771Z,102373.09
2023-02-07T02:15:09.432Z,102369.16
2023-02-07T02:17:56.422Z,102384.16
2023-02-07T02:21:21.377Z,102378.06
2023-02-07T02:24:13.743Z,102390.75
2023-02-07T02:26:54.524Z,102382.63
2023-02-07T02:30:01.321Z,102383.78
2023-02-07T02:33:03.156Z,102396.09
2023-02-07T02:35:38.888Z,102394.09
2023-02-07T02:38:16.579Z,102403.59
2023-02-07T02:40:53.423Z,102383.09
2023-02-07T02:43:30.961Z,102385.84
2023-02-07T02:46:03.117Z,102383.84
2023-02-07T02:48:33.649Z,102377.66
2023-02-07T02:51:02.807Z,102378.72
2023-02-07T02:53:31.271Z,102376.53
2023-02-07T02:56:31.612Z,102369.16
2023-02-07T02:59:25.652Z,102361.47
2023-02-07T03:02:05.878Z,102369.00
2023-02-07T03:05:08.553Z,102365.53
2023-02-07T03:07:52.960Z,102359.69
2023-02-07T03:10:33.448Z,102370.97
2023-02-07T03:13:15.480Z,102377.19
2023-02-07T03:15:55.416Z,102372.38
2023-02-07T03:18:32.016Z,102377.50
2023-02-07T03:21:09.899Z,102379.34
2023-02-07T03:23:39.430Z,102382.63
2023-02-07T03:26:10.088Z,102374.22
2023-02-07T03:28:42.466Z,102369.44
2023-02-07T03:31:15.546Z,102373.97
2023-02-07T03:33:45.648Z,102370.69
2023-02-07T03:36:23.797Z,102373.41
2023-02-07T03:38:52.680Z,102380.00
2023-02-07T03:41:29.583Z,102369.03
2023-02-07T03:44:00.829Z,102377.44
2023-02-07T03:46:37.027Z,102372.50
2023-02-07T03:49:07.730Z,102372.50
2023-02-07T03:51:38.636Z,102378.53
2023-02-07T03:54:07.185Z,102381.09
2023-02-07T03:56:35.627Z,102377.63
2023-02-07T03:59:04.106Z,102383.47
2023-02-07T04:01:33.048Z,102375.31
2023-02-07T04:04:01.539Z,102385.56
2023-02-07T04:06:30.420Z,102384.47
2023-02-07T04:09:00.289Z,102386.28
2023-02-07T04:11:28.902Z,102381.91
2023-02-07T04:13:57.331Z,102368.19
2023-02-07T04:16:27.692Z,102367.28
2023-02-07T04:18:56.166Z,102362.91
2023-02-07T04:21:25.202Z,102365.47
2023-02-07T04:23:53.670Z,102368.91
2023-02-07T04:26:23.946Z,102366.94
2023-02-07T04:28:52.562Z,102366.59
2023-02-07T04:31:21.013Z,102360.25
2023-02-07T04:33:50.206Z,102355.69
2023-02-07T04:36:19.462Z,102356.59
2023-02-07T04:38:47.970Z,102359.91
2023-02-07T04:41:16.418Z,102360.66
2023-02-07T04:43:46.393Z,102358.09
2023-02-07T04:46:14.857Z,102358.09
2023-02-07T04:48:43.343Z,102349.50
2023-02-07T04:51:12.821Z,102346.94
2023-02-07T04:53:41.326Z,102341.09
2023-02-07T04:56:10.156Z,102344.38
2023-02-07T04:58:38.754Z,102350.25
2023-02-07T05:01:08.677Z,102347.13
2023-02-07T05:03:37.193Z,102351.16
2023-02-07T05:06:06.423Z,102351.72
2023-02-07T05:08:34.889Z,102348.09
2023-02-07T05:11:04.035Z,102351.38
2023-02-07T05:13:32.480Z,102350.47
2023-02-07T05:16:04.513Z,102349.75
2023-02-07T05:18:34.656Z,102342.63
2023-02-07T05:21:03.173Z,102345.91
2023-02-07T05:23:31.795Z,102348.34
2023-02-07T05:26:00.209Z,102353.44
2023-02-07T05:28:28.651Z,102347.41
2023-02-07T05:30:57.937Z,102343.03
2023-02-07T05:33:25.432Z,102336.09
2023-02-07T05:35:55.699Z,102343.78
2023-02-07T05:38:24.133Z,102338.47
2023-02-07T05:40:52.812Z,102345.28
2023-02-07T05:43:21.229Z,102349.13
2023-02-07T05:45:49.731Z,102350.94
2023-02-07T05:48:18.730Z,102358.44
2023-02-07T05:50:47.182Z,102372.88
2023-02-07T05:53:17.240Z,102367.28
2023-02-07T05:55:45.728Z,102368.41
2023-02-07T05:58:14.112Z,102367.00
2023-02-07T06:00:42.577Z,102371.44
2023-02-07T06:03:11.397Z,102369.09
2023-02-07T06:05:40.274Z,102373.72
2023-02-07T06:08:09.160Z,102382.53
2023-02-07T06:10:39.001Z,102384.38
2023-02-07T06:13:07.948Z,102382.19
2023-02-07T06:15:36.632Z,102381.88
2023-02-07T06:18:05.635Z,102386.97
2023-02-07T06:20:33.986Z,102376.75
2023-02-07T06:23:02.415Z,102383.50
2023-02-07T06:25:30.908Z,102393.00
2023-02-07T06:28:00.787Z,102393.56
2023-02-07T06:30:29.645Z,102383.34
2023-02-07T06:32:58.149Z,102381.50
2023-02-07T06:35:26.884Z,102383.19
2023-02-07T06:37:55.372Z,102395.38
2023-02-07T06:40:23.795Z,102396.50
2023-02-07T06:42:52.152Z,102395.38
2023-02-07T06:45:21.929Z,102405.97
2023-02-07T06:47:50.425Z,102407.44
2023-02-07T06:50:19.138Z,102405.63
2023-02-07T06:52:49.430Z,102410.41
2023-02-07T06:55:18.300Z,102410.63
2023-02-07T06:57:46.670Z,102405.13
2023-02-07T07:00:17.325Z,102413.53
2023-02-07T07:02:47.509Z,102423.44
2023-02-07T07:05:16.531Z,102427.63
2023-02-07T07:07:45.460Z,102426.19
2023-02-07T07:10:14.159Z,102426.00
2023-02-07T07:12:42.669Z,102429.47
2023-02-07T07:15:11.605Z,102441.53
2023-02-07T07:17:42.310Z,102437.13
2023-02-07T07:20:13.170Z,102433.84
2023-02-07T07:22:41.663Z,102431.28
2023-02-07T07:25:10.853Z,102433.25
2023-02-07T07:27:39.328Z,102434.91
2023-02-07T07:30:10.662Z,102438.56
2023-02-07T07:32:40.615Z,102435.28
2023-02-07T07:35:11.165Z,102433.78
2023-02-07T07:37:41.745Z,102442.56
2023-02-07T07:40:11.906Z,102429.94
2023-02-07T07:42:40.579Z,102437.78
2023-02-07T07:45:22.557Z,102442.00
2023-02-07T07:47:51.084Z,102452.25
2023-02-07T07:50:21.500Z,102442.88
2023-02-07T07:52:50.001Z,102443.66
2023-02-07T07:55:18.656Z,102446.34
2023-02-07T07:57:47.199Z,102442.16
2023-02-07T08:00:16.497Z,102449.28
2023-02-07T08:02:45.320Z,102445.41
2023-02-07T08:05:14.043Z,102449.78
2023-02-07T08:07:43.915Z,102451.97
2023-02-07T08:10:12.902Z,102450.50
2023-02-07T08:12:43.270Z,102460.72
2023-02-07T08:15:13.981Z,102466.03
2023-02-07T08:17:42.525Z,102458.50
2023-02-07T08:20:12.842Z,102449.19
2023-02-07T08:22:41.629Z,102443.72
2023-02-07T08:25:11.893Z,102436.38
2023-02-07T08:27:40.616Z,102432.19
2023-02-07T08:30:12.920Z,102441.69
2023-02-07T08:32:42.116Z,102440.78
2023-02-07T08:35:10.991Z,102442.59
2023-02-07T08:37:39.752Z,102439.31
2023-02-07T08:40:11.394Z,102436.94
2023-02-07T08:42:39.993Z,102438.72
2023-02-07T08:45:10.363Z,102442.38
2023-02-07T08:47:39.162Z,102458.81
2023-02-07T08:50:09.943Z,102451.31
2023-02-07T08:52:38.781Z,102451.47
2023-02-07T08:55:08.807Z,102448.53
2023-02-07T08:57:39.709Z,102445.59
2023-02-07T09:00:10.533Z,102440.63
2023-02-07T09:02:39.699Z,102439.34
2023-02-07T09:05:09.143Z,102437.84
2023-02-07T09:07:38.098Z,102440.94
2023-02-07T09:10:08.951Z,102440.34
2023-02-07T09:12:39.345Z,102444.00
2023-02-07T09:15:09.448Z,102443.59
2023-02-07T09:17:38.136Z,102443.03
2023-02-07T09:20:07.457Z,102441.72
2023-02-07T09:22:57.023Z,102444.66
2023-02-07T09:25:25.765Z,102442.41
2023-02-07T09:27:55.954Z,102443.81
2023-02-07T09:30:24.622Z,102444.19
2023-02-07T09:32:53.657Z,102447.06
2023-02-07T09:35:22.256Z,102437.19
2023-02-07T09:37:50.723Z,102437.50
2023-02-07T09:40:21.001Z,102438.19
2023-02-07T09:42:59.038Z,102438.50
2023-02-07T09:45:32.623Z,102436.84
2023-02-07T09:48:06.697Z,102440.16
2023-02-07T09:50:44.270Z,102447.28
2023-02-07T09:53:19.093Z,102450.94
2023-02-07T09:55:53.763Z,102443.25
2023-02-07T09:58:36.627Z,102433.31
2023-02-07T10:01:11.196Z,102436.78
2023-02-07T10:03:50.374Z,102439.19
2023-02-07T10:06:27.067Z,102441.38
2023-02-07T10:08:59.454Z,102432.16
2023-02-07T10:11:42.852Z,102430.53
2023-02-07T10:14:32.346Z,102445.91
2023-02-07T10:17:31.231Z,102443.69
2023-02-07T10:20:22.782Z,102442.03
2023-02-07T10:23:07.162Z,102439.28
2023-02-07T10:25:49.144Z,102435.47
2023-02-07T10:29:05.451Z,102439.72
2023-02-07T10:31:40.131Z,102435.66
2023-02-07T10:34:15.253Z,102436.13
2023-02-07T10:36:49.462Z,102444.38
2023-02-07T10:39:25.172Z,102443.75
2023-02-07T10:41:55.991Z,102436.81
2023-02-07T10:44:25.687Z,102446.69
2023-02-07T10:47:01.652Z,102452.72
2023-02-07T10:49:33.260Z,102443.94
2023-02-07T10:52:07.646Z,102447.25
2023-02-07T10:54:53.685Z,102443.03
2023-02-07T10:57:23.487Z,102448.16
2023-02-07T11:00:01.962Z,102438.22
2023-02-07T11:02:54.202Z,102443.69
2023-02-07T11:05:55.284Z,102453.72
2023-02-07T11:08:28.722Z,102444.53
2023-02-07T11:10:59.697Z,102440.81
2023-02-07T11:13:30.954Z,102440.59
2023-02-07T11:16:04.230Z,102442.72
2023-02-07T11:18:45.636Z,102437.91
2023-02-07T11:21:29.970Z,102438.09
2023-02-07T11:24:02.730Z,102441.91
2023-02-07T11:26:32.469Z,102437.41
2023-02-07T11:29:08.505Z,102440.34
2023-02-07T11:31:39.156Z,102443.09
2023-02-07T11:34:42.472Z,102442.00
2023-02-07T11:37:22.747Z,102435.75
2023-02-07T11:39:52.654Z,102425.94
2023-02-07T11:42:23.549Z,102427.75
2023-02-07T11:44:52.751Z,102427.94
2023-02-07T11:47:27.702Z,102437.22
2023-02-07T11:50:00.262Z,102436.63
2023-02-07T11:52:29.479Z,102426.13
2023-02-07T11:55:02.135Z,102435.03
2023-02-07T11:57:34.872Z,102439.41
2023-02-07T12:00:08.079Z,102434.28
2023-02-07T12:02:43.150Z,102428.84
2023-02-07T12:05:20.958Z,102409.56
2023-02-07T12:07:53.415Z,102410.81
2023-02-07T12:10:25.339Z,102414.78
2023-02-07T12:13:02.525Z,102409.03
2023-02-07T12:15:37.958Z,102408.78
2023-02-07T12:18:14.306Z,102400.69
2023-02-07T12:20:54.017Z,102407.22
2023-02-07T12:23:41.725Z,102403.63
2023-02-07T12:26:21.988Z,102398.97
2023-02-07T12:29:13.506Z,102384.31
2023-02-07T12:31:52.538Z,102400.28
2023-02-07T12:34:30.657Z,102392.78
2023-02-07T12:37:12.914Z,102395.03
2023-02-07T12:39:47.306Z,102398.00
2023-02-07T12:42:31.074Z,102393.63
2023-02-07T12:45:02.284Z,102389.56
2023-02-07T12:47:43.919Z,102383.25
2023-02-07T12:50:40.924Z,102387.53
2023-02-07T12:53:29.514Z,102374.44
2023-02-07T12:56:10.536Z,102373.41
2023-02-07T12:58:51.502Z,102370.72
2023-02-07T13:01:28.007Z,102358.97
2023-02-07T13:04:42.607Z,102357.88
2023-02-07T13:07:28.085Z,102350.78
2023-02-07T13:10:05.847Z,102355.66
2023-02-07T13:12:46.660Z,102363.81
2023-02-07T13:15:23.738Z,102364.28
2023-02-07T13:18:01.866Z,102370.50
2023-02-07T13:20:52.528Z,102371.56
2023-02-07T13:23:23.835Z,102372.31
2023-02-07T13:25:58.478Z,102369.31
2023-02-07T13:28:33.099Z,102373.25
2023-02-07T13:31:02.897Z,102363.31
2023-02-07T13:33:36.345Z,102363.16
2023-02-07T13:36:14.877Z,102356.09
2023-02-07T13:39:03.724Z,102346.44
2023-02-07T13:41:58.097Z,102353.72
2023-02-07T13:44:35.631Z,102351.63
2023-02-07T13:47:34.000Z,102340.72
2023-02-07T13:50:12.168Z,102343.63
2023-02-07T13:52:47.407Z,102341.50
2023-02-07T13:55:28.305Z,102343.50
2023-02-07T13:58:15.861Z,102352.56
2023-02-07T14:01:17.371Z,102338.19
2023-02-07T14:04:02.524Z,102343.34
2023-02-07T14:06:34.396Z,102331.00
2023-02-07T14:09:08.922Z,102336.72
2023-02-07T14:11:43.056Z,102333.56
2023-02-07T14:14:25.487Z,102329.63
2023-02-07T14:16:57.147Z,102328.44
2023-02-07T14:19:52.300Z,102327.53
2023-02-07T14:22:29.804Z,102328.44
2023-02-07T14:25:22.299Z,102324.19
2023-02-07T14:28:20.134Z,102323.44
2023-02-07T14:31:16.835Z,102327.69
2023-02-07T14:34:15.601Z,102318.72
2023-02-07T14:36:44.158Z,102329.94
2023-02-07T14:39:34.483Z,102321.47
2023-02-07T14:42:14.288Z,102311.94
2023-02-07T14:44:44.435Z,102313.75
2023-02-07T14:47:24.408Z,102307.88
2023-02-07T14:49:56.950Z,102311.19
2023-02-07T14:52:30.814Z,102313.91
2023-02-07T14:55:02.804Z,102309.69
2023-02-07T14:57:41.407Z,102305.28
2023-02-07T15:00:28.716Z,102314.81
2023-02-07T15:03:02.868Z,102308.78
2023-02-07T15:05:35.724Z,102313.00
2023-02-07T15:08:17.661Z,102309.06
2023-02-07T15:10:54.165Z,102323.56
2023-02-07T15:13:27.982Z,102309.53
2023-02-07T15:16:00.286Z,102313.00
2023-02-07T15:18:33.082Z,102310.59
2023-02-07T15:21:03.566Z,102310.72
2023-02-07T15:23:33.678Z,102314.38
2023-02-07T15:26:07.905Z,102319.84
2023-02-07T15:28:36.687Z,102321.63
2023-02-07T15:31:12.766Z,102309.56
2023-02-07T15:33:51.170Z,102317.25
2023-02-07T15:36:35.257Z,102314.38
2023-02-07T15:39:07.607Z,102309.97
2023-02-07T15:41:36.199Z,102313.28
2023-02-07T15:44:07.615Z,102309.97
2023-02-07T15:46:51.496Z,102313.28
2023-02-07T15:49:30.484Z,102308.03
2023-02-07T15:52:12.206Z,102311.19
2023-02-07T15:54:45.748Z,102311.19
2023-02-07T15:57:23.260Z,102317.84
2023-02-07T15:59:52.664Z,102315.13
2023-02-07T16:02:27.234Z,102316.94
2023-02-07T16:04:55.928Z,102323.00
2023-02-07T16:07:26.545Z,102323.00
2023-02-07T16:09:54.906Z,102321.31
2023-02-07T16:12:47.865Z,102321.94
2023-02-07T16:15:29.900Z,102317.38
2023-02-07T16:17:59.104Z,102321.28
2023-02-07T16:20:28.686Z,102317.78
2023-02-07T16:23:01.720Z,102322.78
2023-02-07T16:25:33.009Z,102316.44
2023-02-07T16:28:02.819Z,102328.81
2023-02-07T16:30:36.876Z,102327.75
2023-02-07T16:33:07.050Z,102336.19
2023-02-07T16:35:35.650Z,102333.63
2023-02-07T16:38:05.552Z,102322.31
2023-02-07T16:40:34.105Z,102321.25
2023-02-07T16:43:05.404Z,102328.94
2023-02-07T16:45:33.923Z,102336.38
2023-02-07T16:48:02.456Z,102339.06
2023-02-07T16:50:32.033Z,102335.28
2023-02-07T16:53:00.527Z,102339.50
2023-02-07T16:55:30.786Z,102342.66
2023-02-07T16:57:59.547Z,102346.78
2023-02-07T17:00:31.477Z,102351.00
2023-02-07T17:02:59.966Z,102345.53
2023-02-07T17:05:28.699Z,102344.63
2023-02-07T17:07:57.363Z,102341.00
2023-02-07T17:10:31.345Z,102350.38
2023-02-07T17:12:59.871Z,102358.66
2023-02-07T17:15:28.898Z,102343.13
2023-02-07T17:17:59.510Z,102359.09
2023-02-07T17:20:33.847Z,102359.72
2023-02-07T17:23:02.583Z,102367.25
2023-02-07T17:25:32.968Z,102365.09
2023-02-07T17:28:01.592Z,102368.44
2023-02-07T17:30:38.197Z,102359.84
2023-02-07T17:33:07.026Z,102360.25
2023-02-07T17:35:36.072Z,102357.69
2023-02-07T17:38:05.030Z,102357.53
2023-02-07T17:40:38.529Z,102359.22
2023-02-07T17:43:07.905Z,102359.22
2023-02-07T17:45:38.407Z,102361.78
2023-02-07T17:48:07.481Z,102360.13
2023-02-07T17:50:40.887Z,102367.81
2023-02-07T17:53:10.985Z,102357.53
2023-02-07T17:55:41.360Z,102357.53
2023-02-07T17:58:09.700Z,102363.44
2023-02-07T18:00:40.328Z,102360.88
2023-02-07T18:03:09.404Z,102364.16
2023-02-07T18:05:40.392Z,102368.56
2023-02-07T18:08:10.084Z,102361.44
2023-02-07T18:10:40.304Z,102357.09
2023-02-07T18:13:09.030Z,102355.09
2023-02-07T18:15:37.451Z,102348.88
2023-02-07T18:18:06.294Z,102354.00
2023-02-07T18:20:35.806Z,102355.66
2023-02-07T18:23:04.216Z,102363.25
2023-02-07T18:25:34.423Z,102357.94
2023-02-07T18:28:04.315Z,102350.06
2023-02-07T18:30:33.535Z,102345.69
2023-02-07T18:33:02.081Z,102354.16
2023-02-07T18:35:30.699Z,102353.06
2023-02-07T18:37:59.105Z,102353.81
2023-02-07T18:40:28.040Z,102345.81
2023-02-07T18:42:57.162Z,102348.97
2023-02-07T18:45:27.636Z,102351.38
2023-02-07T18:47:56.085Z,102349.41
2023-02-07T18:50:25.354Z,102358.03
2023-02-07T18:52:54.610Z,102341.72
2023-02-07T18:55:23.202Z,102345.00
2023-02-07T18:57:51.621Z,102351.06
2023-02-07T19:00:20.879Z,102351.06
2023-02-07T19:02:50.832Z,102352.56
2023-02-07T19:05:20.564Z,102351.63
2023-02-07T19:07:49.012Z,102349.97
2023-02-07T19:10:17.568Z,102352.41
2023-02-07T19:12:46.264Z,102356.63
2023-02-07T19:15:15.230Z,102350.44
2023-02-07T19:17:43.583Z,102343.47
2023-02-07T19:20:13.612Z,102343.28
2023-02-07T19:22:42.113Z,102351.00
2023-02-07T19:25:10.833Z,102347.38
2023-02-07T19:27:39.241Z,102344.66
2023-02-07T19:30:10.631Z,102337.69
2023-02-07T19:32:39.243Z,102337.41
2023-02-07T19:35:08.283Z,102338.13
2023-02-07T19:37:38.216Z,102331.91
2023-02-07T19:40:07.819Z,102328.31
2023-02-07T19:42:36.863Z,102332.53
2023-02-07T19:45:05.957Z,102327.97
2023-02-07T19:47:34.318Z,102323.59
2023-02-07T19:50:02.830Z,102327.97
2023-02-07T19:52:31.445Z,102322.69
2023-02-07T19:55:01.342Z,102324.38
2023-02-07T19:57:29.778Z,102326.75
2023-02-07T19:59:58.349Z,102340.34
2023-02-07T20:02:26.794Z,102332.47
2023-02-07T20:04:55.552Z,102332.91
2023-02-07T20:07:24.055Z,102327.03
2023-02-07T20:09:52.555Z,102331.81
2023-02-07T20:12:22.534Z,102330.00
2023-02-07T20:14:51.353Z,102328.22
2023-02-07T20:17:19.781Z,102329.69
2023-02-07T20:19:48.158Z,102326.03
2023-02-07T20:22:16.637Z,102323.19
2023-02-07T20:24:45.291Z,102329.97
2023-02-07T20:27:13.738Z,102328.13
2023-02-07T20:29:45.358Z,102337.34
2023-02-07T20:32:16.497Z,102326.91
2023-02-07T20:34:46.589Z,102330.22
2023-02-07T20:37:15.584Z,102335.94
2023-02-07T20:39:44.181Z,102342.72
2023-02-07T20:42:12.791Z,102340.91
2023-02-07T20:44:41.243Z,102339.84
2023-02-07T20:47:13.432Z,102341.31
2023-02-07T20:49:42.058Z,102336.78
2023-02-07T20:52:10.772Z,102344.31
2023-02-07T20:54:39.220Z,102345.22
2023-02-07T20:57:08.047Z,102344.13
2023-02-07T20:59:36.471Z,102344.00
2023-02-07T21:02:05.055Z,102344.75
2023-02-07T21:04:37.396Z,102347.31
2023-02-07T21:07:06.469Z,102343.63
2023-02-07T21:09:35.103Z,102342.53
2023-02-07T21:12:03.916Z,102347.84
2023-02-07T21:14:34.551Z,102350.22
2023-02-07T21:17:06.730Z,102355.34
2023-02-07T21:19:39.828Z,102350.84
2023-02-07T21:22:09.052Z,102341.16
2023-02-07T21:24:37.422Z,102339.34
2023-02-07T21:27:06.192Z,102335.72
2023-02-07T21:29:36.394Z,102346.69
2023-02-07T21:32:05.355Z,102339.19
2023-02-07T21:34:33.887Z,102339.94
2023-02-07T21:37:03.748Z,102324.22
2023-02-07T21:39:32.144Z,102323.31
2023-02-07T21:42:00.901Z,102319.69
2023-02-07T21:44:29.698Z,102313.63
2023-02-07T21:46:58.313Z,102322.97
2023-02-07T21:49:26.973Z,102323.72
2023-02-07T21:51:55.359Z,102325.38
2023-02-07T21:54:25.234Z,102320.84
2023-02-07T21:56:53.800Z,102323.41
2023-02-07T21:59:23.834Z,102312.81
2023-02-07T22:01:54.223Z,102327.44
2023-02-07T22:04:23.195Z,102323.84
2023-02-07T22:06:52.592Z,102328.63
2023-02-07T22:09:23.919Z,102325.50
2023-02-07T22:11:54.401Z,102321.66
2023-02-07T22:14:24.805Z,102322.56
2023-02-07T22:16:54.277Z,102312.94
2023-02-07T22:19:23.301Z,102314.56
2023-02-07T22:21:52.407Z,102313.66
2023-02-07T22:24:21.824Z,102314.41
2023-02-07T22:26:51.569Z,102318.44
2023-02-07T22:29:19.977Z,102329.47
2023-02-07T22:31:48.617Z,102319.22
2023-02-07T22:34:17.087Z,102328.56
2023-02-07T22:36:46.859Z,102328.38
2023-02-07T22:39:18.148Z,102329.13
2023-02-07T22:41:47.670Z,102319.47
2023-02-07T22:44:17.574Z,102327.91
2023-02-07T22:46:45.938Z,102332.13
2023-02-07T22:49:14.344Z,102324.25
2023-02-07T22:51:43.050Z,102327.56
2023-02-07T22:54:16.621Z,102318.81
2023-02-07T22:56:45.977Z,102328.16
2023-02-07T22:59:15.144Z,102324.50
2023-02-07T23:01:46.550Z,102324.50
2023-02-07T23:04:17.635Z,102325.06
2023-02-07T23:06:47.065Z,102333.66
2023-02-07T23:09:16.399Z,102330.06
2023-02-07T23:11:45.087Z,102337.72
2023-02-07T23:14:14.064Z,102344.34
2023-02-07T23:16:44.254Z,102339.22
2023-02-07T23:19:16.902Z,102340.69
2023-02-07T23:21:45.702Z,102341.47
2023-02-07T23:24:14.757Z,102341.28
2023-02-07T23:26:43.117Z,102342.00
2023-02-07T23:29:11.735Z,102348.78
2023-02-07T23:31:40.331Z,102346.22
2023-02-07T23:34:11.100Z,102354.66
2023-02-07T23:36:40.493Z,102352.84
2023-02-07T23:39:09.709Z,102342.44
2023-02-07T23:41:39.252Z,102341.53
2023-02-07T23:44:08.955Z,102346.47
2023-02-07T23:46:38.060Z,102351.41
2023-02-07T23:49:06.692Z,102342.81
2023-02-07T23:51:36.720Z,102332.44
2023-02-07T23:54:05.577Z,102341.78
2023-02-07T23:56:34.600Z,102342.50
2023-02-07T23:59:02.993Z,102332.81
